Lady Nur — 3FFE2 — position and weather

sailwx.info

Track history (hours):
 
Tides and Currents Weather Stations Pressure Air Temp Water Temp Dewpoint Dewpoint Depression Visibility Wind Speed Wind Dir Waves Ship Positions

Lady Nur

Last reported at 2016-Jul-30 01:28 UTC. Time now 2016-Jul-30 01:52 UTC.
Position N 45°13' E 012°16'.

Length 82 m; draft 4.5 m.

Type: Cargo ship. MMSI: 373237000.

Date/timePositionNaut miles runAvg speedWind from/ knotsBaromVisibWave heightAir tempDewpointWater temp
2016-Jul-30 01:28N 45°13' E 012°16'0 0.0
2016-Jul-30 00:28N 45°13' E 012°16'0 0.0
2016-Jul-29 23:31N 45°13' E 012°16'0 0.0
2016-Jul-29 22:31N 45°13' E 012°16'0 0.0
2016-Jul-29 21:31N 45°13' E 012°16'0 0.0
2016-Jul-29 20:28N 45°13' E 012°16'0 0.0
2016-Jul-29 19:31N 45°13' E 012°16'0 0.0
2016-Jul-29 18:31N 45°13' E 012°16'0 0.0
2016-Jul-29 17:31N 45°13' E 012°16'0 0.0
2016-Jul-29 16:31N 45°13' E 012°16'0 0.0
2016-Jul-29 15:31N 45°13' E 012°16'0 0.0
2016-Jul-29 14:31N 45°13' E 012°16'0 0.0
2016-Jul-29 13:31N 45°13' E 012°16'0 0.0
2016-Jul-29 12:31N 45°13' E 012°16'0 0.0
2016-Jul-29 11:31N 45°13' E 012°16'0 0.0
2016-Jul-29 10:31N 45°13' E 012°16'0 0.0
2016-Jul-29 09:31N 45°13' E 012°16'0 0.0
2016-Jul-29 08:31N 45°13' E 012°16'0 0.0
2016-Jul-29 07:34N 45°13' E 012°16'0 0.0
2016-Jul-29 06:33N 45°13' E 012°16'4 4.2
2016-Jul-29 05:34N 45°14' E 012°21'1 1.0
2016-Jul-29 04:33N 45°14' E 012°23'0 0.3
2016-Jul-29 03:32N 45°14' E 012°23'0 0.0
2016-Jul-29 02:32N 45°14' E 012°23'0 0.0
2016-Jul-29 01:32N 45°14' E 012°23'0 0.0
2016-Jul-29 00:32N 45°14' E 012°23'0 0.0
2016-Jul-28 23:32N 45°14' E 012°23'0 0.0
2016-Jul-28 22:32N 45°14' E 012°23'0 0.0
2016-Jul-28 21:32N 45°14' E 012°23'1 1.2
2016-Jul-28 20:34N 45°13' E 012°24'9 9.1
2016-Jul-28 19:33N 45°06' E 012°32'9 8.9
2016-Jul-28 18:33N 44°58' E 012°38'9 8.7
2016-Jul-28 17:28N 44°49' E 012°43'129 8.1
2016-Jul-28 01:33N 43°08' E 014°33'  
2016-Jul-25 14:20N 38°10' E 022°59'  
2016-Jul-22 07:32N 37°55' E 023°01'11 3.8
2016-Jul-22 04:31N 37°52' E 023°15'8 8.5
2016-Jul-22 03:33N 37°51' E 023°26'8 7.9
2016-Jul-22 02:33N 37°51' E 023°36'7 6.7
2016-Jul-22 01:33N 37°46' E 023°42'8 7.7
2016-Jul-22 00:33N 37°40' E 023°48'8 8.2
2016-Jul-21 23:33N 37°37' E 023°57'41 8.3
2016-Jul-21 18:33N 37°23' E 024°46'9 8.6
2016-Jul-21 17:33N 37°22' E 024°57'  
Track history (hours):
 
Tides and Currents Weather Stations Pressure Air Temp Water Temp Dewpoint Dewpoint Depression Visibility Wind Speed Wind Dir Waves Ship Positions

Lady Nur

Last reported at 2016-Jul-30 01:28 UTC. Time now 2016-Jul-30 01:52 UTC.
Position N 45°13' E 012°16'.

Length 82 m; draft 4.5 m.

Type: Cargo ship. MMSI: 373237000.

Date/timePositionNaut miles runAvg speedWind from/ knotsBaromVisibWave heightAir tempDewpointWater temp
2016-Jul-30 01:28N 45°13' E 012°16'0 0.0
2016-Jul-30 00:28N 45°13' E 012°16'0 0.0
2016-Jul-29 23:31N 45°13' E 012°16'0 0.0
2016-Jul-29 22:31N 45°13' E 012°16'0 0.0
2016-Jul-29 21:31N 45°13' E 012°16'0 0.0
2016-Jul-29 20:28N 45°13' E 012°16'0 0.0
2016-Jul-29 19:31N 45°13' E 012°16'0 0.0
2016-Jul-29 18:31N 45°13' E 012°16'0 0.0
2016-Jul-29 17:31N 45°13' E 012°16'0 0.0
2016-Jul-29 16:31N 45°13' E 012°16'0 0.0
2016-Jul-29 15:31N 45°13' E 012°16'0 0.0
2016-Jul-29 14:31N 45°13' E 012°16'0 0.0
2016-Jul-29 13:31N 45°13' E 012°16'0 0.0
2016-Jul-29 12:31N 45°13' E 012°16'0 0.0
2016-Jul-29 11:31N 45°13' E 012°16'0 0.0
2016-Jul-29 10:31N 45°13' E 012°16'0 0.0
2016-Jul-29 09:31N 45°13' E 012°16'0 0.0
2016-Jul-29 08:31N 45°13' E 012°16'0 0.0
2016-Jul-29 07:34N 45°13' E 012°16'0 0.0
2016-Jul-29 06:33N 45°13' E 012°16'4 4.2
2016-Jul-29 05:34N 45°14' E 012°21'1 1.0
2016-Jul-29 04:33N 45°14' E 012°23'0 0.3
2016-Jul-29 03:32N 45°14' E 012°23'0 0.0
2016-Jul-29 02:32N 45°14' E 012°23'0 0.0
2016-Jul-29 01:32N 45°14' E 012°23'0 0.0
2016-Jul-29 00:32N 45°14' E 012°23'0 0.0
2016-Jul-28 23:32N 45°14' E 012°23'0 0.0
2016-Jul-28 22:32N 45°14' E 012°23'0 0.0
2016-Jul-28 21:32N 45°14' E 012°23'1 1.2
2016-Jul-28 20:34N 45°13' E 012°24'9 9.1
2016-Jul-28 19:33N 45°06' E 012°32'9 8.9
2016-Jul-28 18:33N 44°58' E 012°38'9 8.7
2016-Jul-28 17:28N 44°49' E 012°43'129 8.1
2016-Jul-28 01:33N 43°08' E 014°33'  
2016-Jul-25 14:20N 38°10' E 022°59'  
2016-Jul-22 07:32N 37°55' E 023°01'11 3.8
2016-Jul-22 04:31N 37°52' E 023°15'8 8.5
2016-Jul-22 03:33N 37°51' E 023°26'8 7.9
2016-Jul-22 02:33N 37°51' E 023°36'7 6.7
2016-Jul-22 01:33N 37°46' E 023°42'8 7.7
2016-Jul-22 00:33N 37°40' E 023°48'8 8.2
2016-Jul-21 23:33N 37°37' E 023°57'41 8.3
2016-Jul-21 18:33N 37°23' E 024°46'9 8.6
2016-Jul-21 17:33N 37°22' E 024°57'  

Dump ship's entire track history